Detall de PIREP

Printer-friendly versionPDF version

[2012/08/10 14:38:00]
Flight IATA:CT1005
Pilot Number:037
Company ICAO:CAT
Aircraft Type:B752/E
PAX:91
Aircraft Registration:PAX
Departing Airport: LHSM
Destination Airport: LKPR
Alternate Airport:LKTB
Online: VATSIM
Route:NALOX Y585 STEIN M174 STO M725 LANUX L858 OKF M725 TABEM L858 VLM
Flight Level:F240
No Slew and time accel
No pause
Crash detect
Detect pilot in Cockpit between each 30 and 45 minutes
14:38 Zero fuel Weight: 173530 Lbs, Fuel Weight: 17301 Lbs
14:38 VATSIM:LHSM 101415Z 36010KT CAVOK 25/10 Q1020 NOSIG
14:38 VATSIM:LKPR 101430Z 31009KT 9999 SCT046 20/09 Q1023 NOSIG
14:42 Parking Brakes off
14:49 Take-off
14:49 Take off Weight: 189729 Lbs
14:49 Wind: 358º @ 010 Knots Heading: 346º
14:49 POS N46º 41´ 32´´ E017º 09´ 23´´
14:49 Gear Up: 182 Knots
14:49 Flaps:2 at 182 Knots
14:49 Flaps:1 at 196 Knots
14:50 Flaps:0 at 217 Knots
14:59 TOC
14:59 Fuel Weight: 13589 Lb
15:04 Wind:357º@039 Knots Heading: 336º Ground Speed: 436 Knots Altitude 24255 ft
15:17 TOD
15:17 Fuel Weight: 10373 Lb
15:19 Wind:314º@032 Knots Heading: 333º Ground Speed: 337 Knots Altitude 21758 ft
15:31 Flaps:1 at 219 Knots
15:32 Flaps:2 at 185 Knots
15:33 Flaps:3 at 194 Knots
15:34 Wind:325º@009 Knots Heading: 256º Ground Speed: 196 Knots Altitude 2312 ft
15:34 Gear Down: 194 Knots
15:34 Flaps:4 at 177 Knots
15:34 Flaps:5 at 165 Knots
15:35 TouchDown:Rate -283 ft/min Speed: 141 Knots
15:35 VATSIM:LKPR 101500Z 33008KT 9999 SCT046 19/08 Q1023 NOSIG
15:35 Land
15:35 Wind:325º@008 Knots
15:35 Heading: 243º
15:35 Flight Duration: 00:46
15:35 Landing Weight: 182984 Lbs
15:35 POS N50º 06´ 38´´ E014º 15´ 21´´
15:50 Parking brakes on
15:50 Block to Block Duration: 01:08
15:50 Final Fuel: 7877 Lbls
15:50 Spent Fuel: 9424 Lbls
15:50 FlightLength: 219 NM
15:50 TOD Land Length: 40 NM

Exportar CSV

Powered by Drupal - Modified by Danger4k